sensor_id;sensor_type;location;lat;lon;timestamp;P1;durP1;ratioP1;P2;durP2;ratioP2
80776;SDS011;70169;51.262;6.336;2023-07-20T00:00:00;5.00;;;2.50;;
80776;SDS011;70169;51.262;6.336;2023-07-20T00:02:16;5.22;;;2.80;;
80776;SDS011;70169;51.262;6.336;2023-07-20T00:04:31;4.80;;;2.30;;
80776;SDS011;70169;51.262;6.336;2023-07-20T00:06:47;5.07;;;2.65;;
80776;SDS011;70169;51.262;6.336;2023-07-20T00:09:02;5.20;;;2.20;;
80776;SDS011;70169;51.262;6.336;2023-07-20T00:11:18;3.43;;;2.20;;
80776;SDS011;70169;51.262;6.336;2023-07-20T00:13:33;3.90;;;1.90;;
80776;SDS011;70169;51.262;6.336;2023-07-20T00:15:48;4.37;;;2.73;;
80776;SDS011;70169;51.262;6.336;2023-07-20T00:18:04;4.15;;;2.28;;
80776;SDS011;70169;51.262;6.336;2023-07-20T00:20:21;8.80;;;2.70;;
80776;SDS011;70169;51.262;6.336;2023-07-20T00:22:38;5.57;;;2.70;;
80776;SDS011;70169;51.262;6.336;2023-07-20T00:24:53;4.07;;;2.50;;
80776;SDS011;70169;51.262;6.336;2023-07-20T00:27:09;3.97;;;2.70;;
80776;SDS011;70169;51.262;6.336;2023-07-20T00:29:24;3.85;;;2.88;;
80776;SDS011;70169;51.262;6.336;2023-07-20T00:31:39;4.07;;;2.87;;
80776;SDS011;70169;51.262;6.336;2023-07-20T00:33:55;3.63;;;2.20;;
80776;SDS011;70169;51.262;6.336;2023-07-20T00:36:10;4.22;;;2.60;;
80776;SDS011;70169;51.262;6.336;2023-07-20T00:38:25;4.67;;;2.77;;
80776;SDS011;70169;51.262;6.336;2023-07-20T00:40:41;4.87;;;3.07;;
80776;SDS011;70169;51.262;6.336;2023-07-20T00:42:56;4.53;;;2.93;;
80776;SDS011;70169;51.262;6.336;2023-07-20T00:45:11;4.33;;;2.77;;
80776;SDS011;70169;51.262;6.336;2023-07-20T00:47:27;4.33;;;2.60;;
80776;SDS011;70169;51.262;6.336;2023-07-20T00:49:42;5.07;;;3.10;;
80776;SDS011;70169;51.262;6.336;2023-07-20T00:51:59;3.72;;;2.50;;
80776;SDS011;70169;51.262;6.336;2023-07-20T00:54:16;4.70;;;2.80;;
80776;SDS011;70169;51.262;6.336;2023-07-20T00:56:31;4.55;;;2.92;;
80776;SDS011;70169;51.262;6.336;2023-07-20T00:58:47;3.92;;;2.60;;
80776;SDS011;70169;51.262;6.336;2023-07-20T01:01:02;4.03;;;2.63;;
80776;SDS011;70169;51.262;6.336;2023-07-20T01:03:17;4.50;;;2.73;;
80776;SDS011;70169;51.262;6.336;2023-07-20T01:05:35;5.23;;;2.97;;
80776;SDS011;70169;51.262;6.336;2023-07-20T01:07:59;4.38;;;2.45;;
80776;SDS011;70169;51.262;6.336;2023-07-20T01:12:51;4.43;;;2.60;;
80776;SDS011;70169;51.262;6.336;2023-07-20T01:15:08;4.13;;;2.40;;
80776;SDS011;70169;51.262;6.336;2023-07-20T01:17:24;4.68;;;3.05;;
80776;SDS011;70169;51.262;6.336;2023-07-20T01:19:39;4.27;;;2.60;;
80776;SDS011;70169;51.262;6.336;2023-07-20T01:22:09;4.97;;;2.97;;
80776;SDS011;70169;51.262;6.336;2023-07-20T01:30:08;4.20;;;2.83;;
80776;SDS011;70169;51.262;6.336;2023-07-20T01:32:27;4.47;;;2.83;;
80776;SDS011;70169;51.262;6.336;2023-07-20T01:34:46;4.55;;;2.90;;
80776;SDS011;70169;51.262;6.336;2023-07-20T01:37:03;5.30;;;3.20;;
80776;SDS011;70169;51.262;6.336;2023-07-20T01:39:21;6.03;;;3.42;;
80776;SDS011;70169;51.262;6.336;2023-07-20T01:41:37;5.45;;;3.40;;
80776;SDS011;70169;51.262;6.336;2023-07-20T01:43:56;4.00;;;2.58;;
80776;SDS011;70169;51.262;6.336;2023-07-20T01:46:13;4.43;;;2.83;;
80776;SDS011;70169;51.262;6.336;2023-07-20T01:48:28;6.37;;;3.03;;
80776;SDS011;70169;51.262;6.336;2023-07-20T01:50:44;4.72;;;3.00;;
80776;SDS011;70169;51.262;6.336;2023-07-20T01:52:59;4.70;;;2.47;;
80776;SDS011;70169;51.262;6.336;2023-07-20T01:55:15;5.85;;;2.92;;
80776;SDS011;70169;51.262;6.336;2023-07-20T01:57:30;4.90;;;2.95;;
80776;SDS011;70169;51.262;6.336;2023-07-20T01:59:45;4.30;;;2.50;;
80776;SDS011;70169;51.262;6.336;2023-07-20T02:02:01;5.57;;;3.20;;
80776;SDS011;70169;51.262;6.336;2023-07-20T02:04:16;5.10;;;2.93;;
80776;SDS011;70169;51.262;6.336;2023-07-20T02:06:31;4.10;;;2.80;;
80776;SDS011;70169;51.262;6.336;2023-07-20T02:08:47;5.17;;;3.00;;
80776;SDS011;70169;51.262;6.336;2023-07-20T02:11:02;4.13;;;2.80;;
80776;SDS011;70169;51.262;6.336;2023-07-20T02:13:17;4.63;;;2.58;;
80776;SDS011;70169;51.262;6.336;2023-07-20T02:15:33;5.90;;;2.70;;
80776;SDS011;70169;51.262;6.336;2023-07-20T02:17:48;4.80;;;2.60;;
80776;SDS011;70169;51.262;6.336;2023-07-20T02:20:03;5.43;;;3.00;;
80776;SDS011;70169;51.262;6.336;2023-07-20T02:22:19;4.50;;;2.83;;
80776;SDS011;70169;51.262;6.336;2023-07-20T02:24:35;4.43;;;2.78;;
80776;SDS011;70169;51.262;6.336;2023-07-20T02:26:50;4.53;;;2.63;;
80776;SDS011;70169;51.262;6.336;2023-07-20T02:29:06;5.23;;;2.97;;
80776;SDS011;70169;51.262;6.336;2023-07-20T02:31:23;3.83;;;2.55;;
80776;SDS011;70169;51.262;6.336;2023-07-20T02:33:38;4.53;;;2.70;;
80776;SDS011;70169;51.262;6.336;2023-07-20T02:35:53;5.57;;;3.07;;
80776;SDS011;70169;51.262;6.336;2023-07-20T02:38:08;4.50;;;2.77;;
80776;SDS011;70169;51.262;6.336;2023-07-20T02:40:24;4.57;;;3.00;;
80776;SDS011;70169;51.262;6.336;2023-07-20T02:42:39;5.70;;;3.00;;
80776;SDS011;70169;51.262;6.336;2023-07-20T02:44:54;4.70;;;2.87;;
80776;SDS011;70169;51.262;6.336;2023-07-20T02:47:10;5.23;;;3.10;;
80776;SDS011;70169;51.262;6.336;2023-07-20T02:49:25;5.22;;;2.92;;
80776;SDS011;70169;51.262;6.336;2023-07-20T02:51:41;5.80;;;3.25;;
80776;SDS011;70169;51.262;6.336;2023-07-20T02:53:57;6.22;;;3.33;;
80776;SDS011;70169;51.262;6.336;2023-07-20T02:56:12;5.93;;;3.43;;
80776;SDS011;70169;51.262;6.336;2023-07-20T02:58:27;4.43;;;2.70;;
80776;SDS011;70169;51.262;6.336;2023-07-20T03:00:43;6.20;;;2.90;;
80776;SDS011;70169;51.262;6.336;2023-07-20T03:02:59;4.30;;;2.92;;
80776;SDS011;70169;51.262;6.336;2023-07-20T03:05:14;3.70;;;2.40;;
80776;SDS011;70169;51.262;6.336;2023-07-20T03:07:31;3.80;;;2.42;;
80776;SDS011;70169;51.262;6.336;2023-07-20T03:09:47;5.33;;;3.30;;
80776;SDS011;70169;51.262;6.336;2023-07-20T03:12:03;4.82;;;2.90;;
80776;SDS011;70169;51.262;6.336;2023-07-20T03:14:19;5.88;;;3.00;;
80776;SDS011;70169;51.262;6.336;2023-07-20T03:16:35;5.13;;;2.90;;
80776;SDS011;70169;51.262;6.336;2023-07-20T03:18:50;6.10;;;3.30;;
80776;SDS011;70169;51.262;6.336;2023-07-20T03:21:07;5.75;;;3.13;;
80776;SDS011;70169;51.262;6.336;2023-07-20T03:23:23;4.88;;;2.83;;
80776;SDS011;70169;51.262;6.336;2023-07-20T03:25:38;7.27;;;3.27;;
80776;SDS011;70169;51.262;6.336;2023-07-20T03:27:54;5.83;;;2.83;;
80776;SDS011;70169;51.262;6.336;2023-07-20T03:30:09;4.07;;;2.53;;
80776;SDS011;70169;51.262;6.336;2023-07-20T03:32:25;5.10;;;2.90;;
80776;SDS011;70169;51.262;6.336;2023-07-20T03:34:41;6.13;;;3.07;;
80776;SDS011;70169;51.262;6.336;2023-07-20T03:36:56;4.35;;;2.50;;
80776;SDS011;70169;51.262;6.336;2023-07-20T03:39:12;4.73;;;2.73;;
80776;SDS011;70169;51.262;6.336;2023-07-20T03:41:27;5.10;;;2.70;;
80776;SDS011;70169;51.262;6.336;2023-07-20T03:43:42;4.77;;;2.43;;
80776;SDS011;70169;51.262;6.336;2023-07-20T03:45:57;5.20;;;3.07;;
80776;SDS011;70169;51.262;6.336;2023-07-20T03:48:13;5.70;;;3.57;;
80776;SDS011;70169;51.262;6.336;2023-07-20T03:50:30;8.13;;;3.80;;
80776;SDS011;70169;51.262;6.336;2023-07-20T03:52:45;7.10;;;5.20;;
80776;SDS011;70169;51.262;6.336;2023-07-20T03:55:01;7.67;;;5.07;;
80776;SDS011;70169;51.262;6.336;2023-07-20T03:57:16;8.40;;;4.97;;
80776;SDS011;70169;51.262;6.336;2023-07-20T03:59:32;6.78;;;4.70;;
80776;SDS011;70169;51.262;6.336;2023-07-20T04:01:48;7.60;;;4.38;;
80776;SDS011;70169;51.262;6.336;2023-07-20T04:04:06;6.13;;;4.23;;
80776;SDS011;70169;51.262;6.336;2023-07-20T04:06:22;9.75;;;5.13;;
80776;SDS011;70169;51.262;6.336;2023-07-20T04:08:37;7.50;;;5.07;;
80776;SDS011;70169;51.262;6.336;2023-07-20T04:10:53;6.82;;;4.35;;
80776;SDS011;70169;51.262;6.336;2023-07-20T04:13:08;12.03;;;5.97;;
80776;SDS011;70169;51.262;6.336;2023-07-20T04:15:24;10.17;;;5.33;;
80776;SDS011;70169;51.262;6.336;2023-07-20T04:17:39;9.00;;;4.93;;
80776;SDS011;70169;51.262;6.336;2023-07-20T04:19:55;8.77;;;5.05;;
80776;SDS011;70169;51.262;6.336;2023-07-20T04:22:11;8.03;;;5.00;;
80776;SDS011;70169;51.262;6.336;2023-07-20T04:24:26;6.77;;;4.80;;
80776;SDS011;70169;51.262;6.336;2023-07-20T04:26:41;11.03;;;5.87;;
80776;SDS011;70169;51.262;6.336;2023-07-20T04:28:57;7.43;;;4.88;;
80776;SDS011;70169;51.262;6.336;2023-07-20T04:31:14;7.47;;;4.88;;
80776;SDS011;70169;51.262;6.336;2023-07-20T04:33:31;10.73;;;5.95;;
80776;SDS011;70169;51.262;6.336;2023-07-20T04:35:47;9.60;;;6.20;;
80776;SDS011;70169;51.262;6.336;2023-07-20T04:38:05;8.63;;;5.28;;
80776;SDS011;70169;51.262;6.336;2023-07-20T04:40:20;8.03;;;5.23;;
80776;SDS011;70169;51.262;6.336;2023-07-20T04:42:36;9.17;;;6.17;;
80776;SDS011;70169;51.262;6.336;2023-07-20T04:44:51;9.05;;;6.45;;
80776;SDS011;70169;51.262;6.336;2023-07-20T04:47:07;9.47;;;6.40;;
80776;SDS011;70169;51.262;6.336;2023-07-20T04:49:23;8.45;;;6.22;;
80776;SDS011;70169;51.262;6.336;2023-07-20T04:51:38;9.43;;;6.13;;
80776;SDS011;70169;51.262;6.336;2023-07-20T04:53:54;8.55;;;6.03;;
80776;SDS011;70169;51.262;6.336;2023-07-20T04:56:09;11.10;;;7.23;;
80776;SDS011;70169;51.262;6.336;2023-07-20T04:58:25;12.20;;;6.32;;
80776;SDS011;70169;51.262;6.336;2023-07-20T05:00:41;8.50;;;6.07;;
80776;SDS011;70169;51.262;6.336;2023-07-20T05:02:56;12.20;;;7.33;;
80776;SDS011;70169;51.262;6.336;2023-07-20T05:05:11;11.27;;;7.67;;
80776;SDS011;70169;51.262;6.336;2023-07-20T05:07:27;10.15;;;6.15;;
80776;SDS011;70169;51.262;6.336;2023-07-20T05:09:42;11.63;;;7.60;;
80776;SDS011;70169;51.262;6.336;2023-07-20T05:11:58;9.97;;;7.10;;
80776;SDS011;70169;51.262;6.336;2023-07-20T05:14:13;10.82;;;7.25;;
80776;SDS011;70169;51.262;6.336;2023-07-20T05:16:28;8.60;;;6.43;;
80776;SDS011;70169;51.262;6.336;2023-07-20T05:18:44;13.33;;;7.30;;
80776;SDS011;70169;51.262;6.336;2023-07-20T05:20:59;9.93;;;6.68;;
80776;SDS011;70169;51.262;6.336;2023-07-20T05:23:18;12.67;;;9.17;;
80776;SDS011;70169;51.262;6.336;2023-07-20T05:25:34;11.45;;;7.47;;
80776;SDS011;70169;51.262;6.336;2023-07-20T05:27:51;10.18;;;7.20;;
80776;SDS011;70169;51.262;6.336;2023-07-20T05:30:07;10.77;;;7.25;;
80776;SDS011;70169;51.262;6.336;2023-07-20T05:32:22;9.63;;;7.55;;
80776;SDS011;70169;51.262;6.336;2023-07-20T05:34:38;9.93;;;6.90;;
80776;SDS011;70169;51.262;6.336;2023-07-20T05:36:53;10.63;;;7.23;;
80776;SDS011;70169;51.262;6.336;2023-07-20T05:39:08;9.87;;;6.57;;
80776;SDS011;70169;51.262;6.336;2023-07-20T05:41:23;9.33;;;6.40;;
80776;SDS011;70169;51.262;6.336;2023-07-20T05:43:39;10.30;;;6.57;;
80776;SDS011;70169;51.262;6.336;2023-07-20T05:45:54;9.27;;;6.80;;
80776;SDS011;70169;51.262;6.336;2023-07-20T05:48:09;8.87;;;6.10;;
80776;SDS011;70169;51.262;6.336;2023-07-20T05:50:27;8.32;;;6.47;;
80776;SDS011;70169;51.262;6.336;2023-07-20T05:52:43;8.48;;;6.80;;
80776;SDS011;70169;51.262;6.336;2023-07-20T05:54:58;8.47;;;5.90;;
80776;SDS011;70169;51.262;6.336;2023-07-20T05:57:13;7.93;;;5.93;;
80776;SDS011;70169;51.262;6.336;2023-07-20T05:59:28;9.03;;;6.23;;
80776;SDS011;70169;51.262;6.336;2023-07-20T06:01:44;11.10;;;7.10;;
80776;SDS011;70169;51.262;6.336;2023-07-20T06:03:59;7.97;;;6.27;;
80776;SDS011;70169;51.262;6.336;2023-07-20T06:06:15;8.00;;;6.13;;
80776;SDS011;70169;51.262;6.336;2023-07-20T06:08:31;9.18;;;6.72;;
80776;SDS011;70169;51.262;6.336;2023-07-20T06:10:49;7.93;;;6.25;;
80776;SDS011;70169;51.262;6.336;2023-07-20T06:13:06;9.57;;;6.57;;
80776;SDS011;70169;51.262;6.336;2023-07-20T06:15:28;10.37;;;7.83;;
80776;SDS011;70169;51.262;6.336;2023-07-20T06:17:46;9.48;;;6.32;;
80776;SDS011;70169;51.262;6.336;2023-07-20T06:20:02;8.37;;;6.70;;
80776;SDS011;70169;51.262;6.336;2023-07-20T06:22:17;8.88;;;7.63;;
80776;SDS011;70169;51.262;6.336;2023-07-20T06:24:32;9.18;;;6.93;;
80776;SDS011;70169;51.262;6.336;2023-07-20T06:26:48;8.87;;;6.37;;
80776;SDS011;70169;51.262;6.336;2023-07-20T06:29:03;7.73;;;5.43;;
80776;SDS011;70169;51.262;6.336;2023-07-20T06:31:18;8.50;;;5.70;;
80776;SDS011;70169;51.262;6.336;2023-07-20T06:33:34;8.23;;;5.67;;
80776;SDS011;70169;51.262;6.336;2023-07-20T06:35:52;7.47;;;5.53;;
80776;SDS011;70169;51.262;6.336;2023-07-20T06:38:07;7.65;;;5.15;;
80776;SDS011;70169;51.262;6.336;2023-07-20T06:40:23;7.47;;;5.30;;
80776;SDS011;70169;51.262;6.336;2023-07-20T06:42:38;6.40;;;5.53;;
80776;SDS011;70169;51.262;6.336;2023-07-20T06:44:53;6.30;;;4.93;;
80776;SDS011;70169;51.262;6.336;2023-07-20T06:47:09;7.73;;;5.17;;
80776;SDS011;70169;51.262;6.336;2023-07-20T06:49:25;5.37;;;3.90;;
80776;SDS011;70169;51.262;6.336;2023-07-20T06:51:41;5.40;;;4.05;;
80776;SDS011;70169;51.262;6.336;2023-07-20T06:53:56;5.57;;;3.97;;
80776;SDS011;70169;51.262;6.336;2023-07-20T06:56:12;4.83;;;3.50;;
80776;SDS011;70169;51.262;6.336;2023-07-20T06:58:27;6.85;;;4.97;;
80776;SDS011;70169;51.262;6.336;2023-07-20T07:00:43;7.27;;;5.10;;
80776;SDS011;70169;51.262;6.336;2023-07-20T07:02:58;7.13;;;5.90;;
80776;SDS011;70169;51.262;6.336;2023-07-20T07:05:13;8.00;;;5.97;;
80776;SDS011;70169;51.262;6.336;2023-07-20T07:07:30;9.27;;;8.02;;
80776;SDS011;70169;51.262;6.336;2023-07-20T07:09:45;8.87;;;6.00;;
80776;SDS011;70169;51.262;6.336;2023-07-20T07:12:01;6.27;;;4.90;;
80776;SDS011;70169;51.262;6.336;2023-07-20T07:14:16;5.93;;;4.67;;
80776;SDS011;70169;51.262;6.336;2023-07-20T07:16:32;6.90;;;4.47;;
80776;SDS011;70169;51.262;6.336;2023-07-20T07:18:47;5.90;;;4.13;;
80776;SDS011;70169;51.262;6.336;2023-07-20T07:21:05;5.07;;;4.05;;
80776;SDS011;70169;51.262;6.336;2023-07-20T07:23:20;6.63;;;4.22;;
80776;SDS011;70169;51.262;6.336;2023-07-20T07:25:36;5.75;;;3.80;;
80776;SDS011;70169;51.262;6.336;2023-07-20T07:27:52;4.63;;;3.60;;
80776;SDS011;70169;51.262;6.336;2023-07-20T07:30:08;5.22;;;3.78;;
80776;SDS011;70169;51.262;6.336;2023-07-20T07:32:24;4.40;;;3.17;;
80776;SDS011;70169;51.262;6.336;2023-07-20T07:34:39;5.05;;;3.30;;
80776;SDS011;70169;51.262;6.336;2023-07-20T07:36:54;4.10;;;2.60;;
80776;SDS011;70169;51.262;6.336;2023-07-20T07:39:10;3.33;;;2.03;;
80776;SDS011;70169;51.262;6.336;2023-07-20T07:41:25;3.75;;;2.35;;
80776;SDS011;70169;51.262;6.336;2023-07-20T07:43:41;3.67;;;2.10;;
80776;SDS011;70169;51.262;6.336;2023-07-20T07:45:56;3.85;;;2.20;;
80776;SDS011;70169;51.262;6.336;2023-07-20T07:48:12;3.03;;;1.98;;
80776;SDS011;70169;51.262;6.336;2023-07-20T07:50:29;4.50;;;3.17;;
80776;SDS011;70169;51.262;6.336;2023-07-20T07:52:45;5.28;;;3.90;;
80776;SDS011;70169;51.262;6.336;2023-07-20T07:57:16;6.53;;;4.83;;
80776;SDS011;70169;51.262;6.336;2023-07-20T07:59:32;5.60;;;4.23;;
80776;SDS011;70169;51.262;6.336;2023-07-20T08:01:51;5.85;;;4.10;;
80776;SDS011;70169;51.262;6.336;2023-07-20T08:04:07;4.63;;;3.03;;
80776;SDS011;70169;51.262;6.336;2023-07-20T08:06:23;4.63;;;2.92;;
80776;SDS011;70169;51.262;6.336;2023-07-20T08:08:39;4.82;;;3.08;;
80776;SDS011;70169;51.262;6.336;2023-07-20T08:10:55;4.85;;;3.45;;
80776;SDS011;70169;51.262;6.336;2023-07-20T08:13:10;4.50;;;3.63;;
80776;SDS011;70169;51.262;6.336;2023-07-20T08:15:25;4.63;;;2.70;;
80776;SDS011;70169;51.262;6.336;2023-07-20T08:17:41;3.50;;;2.50;;
80776;SDS011;70169;51.262;6.336;2023-07-20T08:19:57;3.83;;;2.22;;
80776;SDS011;70169;51.262;6.336;2023-07-20T08:22:12;3.65;;;2.20;;
80776;SDS011;70169;51.262;6.336;2023-07-20T08:24:28;3.85;;;2.40;;
80776;SDS011;70169;51.262;6.336;2023-07-20T08:26:43;3.40;;;2.30;;
80776;SDS011;70169;51.262;6.336;2023-07-20T08:28:58;3.30;;;2.37;;
80776;SDS011;70169;51.262;6.336;2023-07-20T08:31:14;4.03;;;2.10;;
80776;SDS011;70169;51.262;6.336;2023-07-20T08:33:29;2.77;;;1.50;;
80776;SDS011;70169;51.262;6.336;2023-07-20T08:35:48;2.72;;;1.60;;
80776;SDS011;70169;51.262;6.336;2023-07-20T08:38:03;2.55;;;1.60;;
80776;SDS011;70169;51.262;6.336;2023-07-20T08:40:19;2.80;;;1.70;;
80776;SDS011;70169;51.262;6.336;2023-07-20T08:42:35;2.03;;;1.20;;
80776;SDS011;70169;51.262;6.336;2023-07-20T08:44:52;2.20;;;1.40;;
80776;SDS011;70169;51.262;6.336;2023-07-20T08:47:09;2.88;;;2.00;;
80776;SDS011;70169;51.262;6.336;2023-07-20T08:49:27;2.60;;;1.55;;
80776;SDS011;70169;51.262;6.336;2023-07-20T08:51:42;2.40;;;1.50;;
80776;SDS011;70169;51.262;6.336;2023-07-20T08:54:00;2.95;;;1.45;;
80776;SDS011;70169;51.262;6.336;2023-07-20T08:56:15;2.67;;;1.70;;
80776;SDS011;70169;51.262;6.336;2023-07-20T08:58:31;2.10;;;1.38;;
80776;SDS011;70169;51.262;6.336;2023-07-20T09:00:50;3.20;;;1.70;;
80776;SDS011;70169;51.262;6.336;2023-07-20T09:03:06;2.60;;;1.60;;
80776;SDS011;70169;51.262;6.336;2023-07-20T09:05:22;3.25;;;1.95;;
80776;SDS011;70169;51.262;6.336;2023-07-20T09:07:39;4.03;;;2.03;;
80776;SDS011;70169;51.262;6.336;2023-07-20T09:09:56;3.17;;;1.95;;
80776;SDS011;70169;51.262;6.336;2023-07-20T09:12:13;3.50;;;2.08;;
80776;SDS011;70169;51.262;6.336;2023-07-20T09:14:30;3.15;;;1.95;;
80776;SDS011;70169;51.262;6.336;2023-07-20T09:19:03;2.90;;;1.63;;
80776;SDS011;70169;51.262;6.336;2023-07-20T09:21:18;3.80;;;2.20;;
80776;SDS011;70169;51.262;6.336;2023-07-20T09:23:34;4.47;;;2.30;;
80776;SDS011;70169;51.262;6.336;2023-07-20T09:25:51;2.60;;;1.70;;
80776;SDS011;70169;51.262;6.336;2023-07-20T09:28:06;2.60;;;1.70;;
80776;SDS011;70169;51.262;6.336;2023-07-20T09:30:24;3.97;;;1.97;;
80776;SDS011;70169;51.262;6.336;2023-07-20T09:32:41;2.30;;;1.48;;
80776;SDS011;70169;51.262;6.336;2023-07-20T09:35:01;2.33;;;1.40;;
80776;SDS011;70169;51.262;6.336;2023-07-20T09:37:20;2.20;;;1.30;;
80776;SDS011;70169;51.262;6.336;2023-07-20T09:39:42;3.20;;;1.27;;
80776;SDS011;70169;51.262;6.336;2023-07-20T09:42:02;2.47;;;1.27;;
80776;SDS011;70169;51.262;6.336;2023-07-20T09:44:19;2.17;;;0.90;;
80776;SDS011;70169;51.262;6.336;2023-07-20T09:46:41;1.58;;;1.00;;
80776;SDS011;70169;51.262;6.336;2023-07-20T09:51:12;2.20;;;1.33;;
80776;SDS011;70169;51.262;6.336;2023-07-20T09:53:27;2.83;;;1.95;;
80776;SDS011;70169;51.262;6.336;2023-07-20T09:55:44;2.88;;;1.70;;
80776;SDS011;70169;51.262;6.336;2023-07-20T09:58:01;2.95;;;1.75;;
80776;SDS011;70169;51.262;6.336;2023-07-20T10:00:17;2.60;;;1.42;;
80776;SDS011;70169;51.262;6.336;2023-07-20T10:02:33;2.97;;;1.60;;
80776;SDS011;70169;51.262;6.336;2023-07-20T10:04:52;2.60;;;1.40;;
80776;SDS011;70169;51.262;6.336;2023-07-20T10:07:09;2.17;;;1.55;;
80776;SDS011;70169;51.262;6.336;2023-07-20T10:09:28;1.95;;;1.10;;
80776;SDS011;70169;51.262;6.336;2023-07-20T10:11:45;3.45;;;1.77;;
80776;SDS011;70169;51.262;6.336;2023-07-20T10:14:05;3.17;;;1.70;;
80776;SDS011;70169;51.262;6.336;2023-07-20T10:16:31;2.40;;;1.45;;
80776;SDS011;70169;51.262;6.336;2023-07-20T10:18:50;3.10;;;1.65;;
80776;SDS011;70169;51.262;6.336;2023-07-20T10:21:10;2.40;;;1.40;;
80776;SDS011;70169;51.262;6.336;2023-07-20T10:23:26;2.47;;;1.42;;
80776;SDS011;70169;51.262;6.336;2023-07-20T10:25:44;2.53;;;1.35;;
80776;SDS011;70169;51.262;6.336;2023-07-20T10:28:00;1.92;;;1.15;;
80776;SDS011;70169;51.262;6.336;2023-07-20T10:30:17;2.20;;;1.40;;
80776;SDS011;70169;51.262;6.336;2023-07-20T10:32:34;2.40;;;1.27;;
80776;SDS011;70169;51.262;6.336;2023-07-20T10:34:50;2.30;;;1.38;;
80776;SDS011;70169;51.262;6.336;2023-07-20T10:37:11;2.05;;;1.20;;
80776;SDS011;70169;51.262;6.336;2023-07-20T10:42:39;2.50;;;1.23;;
80776;SDS011;70169;51.262;6.336;2023-07-20T10:44:55;2.22;;;1.30;;
80776;SDS011;70169;51.262;6.336;2023-07-20T10:47:11;2.27;;;1.30;;
80776;SDS011;70169;51.262;6.336;2023-07-20T10:49:27;2.20;;;1.27;;
80776;SDS011;70169;51.262;6.336;2023-07-20T10:51:46;2.42;;;1.23;;
80776;SDS011;70169;51.262;6.336;2023-07-20T10:54:03;2.05;;;1.10;;
80776;SDS011;70169;51.262;6.336;2023-07-20T10:56:22;1.90;;;1.10;;
80776;SDS011;70169;51.262;6.336;2023-07-20T10:58:39;1.90;;;1.02;;
80776;SDS011;70169;51.262;6.336;2023-07-20T11:01:01;2.20;;;1.27;;
80776;SDS011;70169;51.262;6.336;2023-07-20T11:03:26;1.60;;;0.90;;
80776;SDS011;70169;51.262;6.336;2023-07-20T11:05:42;1.83;;;1.10;;
80776;SDS011;70169;51.262;6.336;2023-07-20T11:07:58;1.57;;;1.00;;
80776;SDS011;70169;51.262;6.336;2023-07-20T11:10:13;1.90;;;1.10;;
80776;SDS011;70169;51.262;6.336;2023-07-20T11:12:33;2.42;;;0.98;;
80776;SDS011;70169;51.262;6.336;2023-07-20T11:14:58;1.90;;;1.00;;
80776;SDS011;70169;51.262;6.336;2023-07-20T11:17:14;2.83;;;1.10;;
80776;SDS011;70169;51.262;6.336;2023-07-20T11:19:30;1.98;;;1.20;;
80776;SDS011;70169;51.262;6.336;2023-07-20T11:21:46;2.30;;;1.30;;
80776;SDS011;70169;51.262;6.336;2023-07-20T11:24:05;2.35;;;1.15;;
80776;SDS011;70169;51.262;6.336;2023-07-20T11:28:36;3.20;;;1.17;;
80776;SDS011;70169;51.262;6.336;2023-07-20T11:30:52;4.20;;;0.97;;
80776;SDS011;70169;51.262;6.336;2023-07-20T11:33:08;2.67;;;1.08;;
80776;SDS011;70169;51.262;6.336;2023-07-20T11:35:24;2.53;;;1.10;;
80776;SDS011;70169;51.262;6.336;2023-07-20T11:37:40;2.00;;;1.10;;
80776;SDS011;70169;51.262;6.336;2023-07-20T11:39:56;2.60;;;1.50;;
80776;SDS011;70169;51.262;6.336;2023-07-20T11:42:12;3.50;;;1.10;;
80776;SDS011;70169;51.262;6.336;2023-07-20T11:44:28;1.85;;;1.05;;
80776;SDS011;70169;51.262;6.336;2023-07-20T11:46:44;1.98;;;1.20;;
80776;SDS011;70169;51.262;6.336;2023-07-20T11:49:00;3.38;;;0.82;;
80776;SDS011;70169;51.262;6.336;2023-07-20T11:51:16;1.90;;;1.00;;
80776;SDS011;70169;51.262;6.336;2023-07-20T11:53:32;2.50;;;1.02;;
80776;SDS011;70169;51.262;6.336;2023-07-20T11:55:51;1.92;;;1.02;;
80776;SDS011;70169;51.262;6.336;2023-07-20T11:58:08;2.13;;;1.13;;
80776;SDS011;70169;51.262;6.336;2023-07-20T12:02:39;1.98;;;1.08;;
80776;SDS011;70169;51.262;6.336;2023-07-20T12:04:56;2.17;;;1.15;;
80776;SDS011;70169;51.262;6.336;2023-07-20T12:07:12;2.75;;;1.10;;
80776;SDS011;70169;51.262;6.336;2023-07-20T12:09:28;2.30;;;1.05;;
80776;SDS011;70169;51.262;6.336;2023-07-20T12:11:44;2.00;;;0.85;;
80776;SDS011;70169;51.262;6.336;2023-07-20T12:14:00;1.70;;;0.93;;
80776;SDS011;70169;51.262;6.336;2023-07-20T12:16:16;2.25;;;1.35;;
80776;SDS011;70169;51.262;6.336;2023-07-20T12:18:35;2.42;;;1.13;;
80776;SDS011;70169;51.262;6.336;2023-07-20T12:20:58;2.20;;;1.10;;
80776;SDS011;70169;51.262;6.336;2023-07-20T12:23:14;2.40;;;1.13;;
80776;SDS011;70169;51.262;6.336;2023-07-20T12:25:32;1.60;;;0.85;;
80776;SDS011;70169;51.262;6.336;2023-07-20T12:30:26;1.98;;;1.25;;
80776;SDS011;70169;51.262;6.336;2023-07-20T12:32:41;1.57;;;0.97;;
80776;SDS011;70169;51.262;6.336;2023-07-20T12:34:57;2.05;;;0.90;;
80776;SDS011;70169;51.262;6.336;2023-07-20T12:37:12;2.05;;;1.00;;
80776;SDS011;70169;51.262;6.336;2023-07-20T12:39:28;2.00;;;1.00;;
80776;SDS011;70169;51.262;6.336;2023-07-20T12:41:43;1.43;;;0.80;;
80776;SDS011;70169;51.262;6.336;2023-07-20T12:43:58;2.17;;;1.03;;
80776;SDS011;70169;51.262;6.336;2023-07-20T12:48:30;2.17;;;0.90;;
80776;SDS011;70169;51.262;6.336;2023-07-20T12:50:46;1.65;;;0.80;;
80776;SDS011;70169;51.262;6.336;2023-07-20T12:53:02;1.70;;;0.90;;
80776;SDS011;70169;51.262;6.336;2023-07-20T12:55:18;1.83;;;1.00;;
80776;SDS011;70169;51.262;6.336;2023-07-20T12:57:35;1.98;;;1.00;;
80776;SDS011;70169;51.262;6.336;2023-07-20T12:59:51;2.30;;;1.10;;
80776;SDS011;70169;51.262;6.336;2023-07-20T13:02:06;3.50;;;1.10;;
80776;SDS011;70169;51.262;6.336;2023-07-20T13:04:22;1.63;;;0.90;;
80776;SDS011;70169;51.262;6.336;2023-07-20T13:06:37;1.83;;;1.00;;
80776;SDS011;70169;51.262;6.336;2023-07-20T13:08:52;1.43;;;0.83;;
80776;SDS011;70169;51.262;6.336;2023-07-20T13:11:11;2.05;;;1.13;;
80776;SDS011;70169;51.262;6.336;2023-07-20T13:13:26;1.60;;;1.00;;
80776;SDS011;70169;51.262;6.336;2023-07-20T13:15:42;2.07;;;1.00;;
80776;SDS011;70169;51.262;6.336;2023-07-20T13:17:59;1.95;;;1.05;;
80776;SDS011;70169;51.262;6.336;2023-07-20T13:20:15;1.75;;;1.05;;
80776;SDS011;70169;51.262;6.336;2023-07-20T13:22:30;1.73;;;0.88;;
80776;SDS011;70169;51.262;6.336;2023-07-20T13:24:46;2.55;;;1.15;;
80776;SDS011;70169;51.262;6.336;2023-07-20T13:27:04;2.00;;;1.05;;
80776;SDS011;70169;51.262;6.336;2023-07-20T13:29:19;2.78;;;0.95;;
80776;SDS011;70169;51.262;6.336;2023-07-20T13:31:35;2.00;;;1.07;;
80776;SDS011;70169;51.262;6.336;2023-07-20T13:33:50;2.00;;;1.10;;
80776;SDS011;70169;51.262;6.336;2023-07-20T13:36:06;1.80;;;1.10;;
80776;SDS011;70169;51.262;6.336;2023-07-20T13:38:21;2.13;;;1.10;;
80776;SDS011;70169;51.262;6.336;2023-07-20T13:40:37;1.58;;;0.90;;
80776;SDS011;70169;51.262;6.336;2023-07-20T13:42:52;2.20;;;1.05;;
80776;SDS011;70169;51.262;6.336;2023-07-20T13:45:08;1.67;;;0.80;;
80776;SDS011;70169;51.262;6.336;2023-07-20T13:47:23;2.25;;;1.00;;
80776;SDS011;70169;51.262;6.336;2023-07-20T13:49:39;1.83;;;1.10;;
80776;SDS011;70169;51.262;6.336;2023-07-20T13:51:55;2.15;;;1.10;;
80776;SDS011;70169;51.262;6.336;2023-07-20T13:54:10;2.55;;;1.20;;
80776;SDS011;70169;51.262;6.336;2023-07-20T13:56:26;1.88;;;1.05;;
80776;SDS011;70169;51.262;6.336;2023-07-20T13:58:42;2.42;;;1.15;;
80776;SDS011;70169;51.262;6.336;2023-07-20T14:00:57;2.07;;;1.10;;
80776;SDS011;70169;51.262;6.336;2023-07-20T14:03:12;2.70;;;1.50;;
80776;SDS011;70169;51.262;6.336;2023-07-20T14:05:28;2.03;;;1.10;;
80776;SDS011;70169;51.262;6.336;2023-07-20T14:07:43;2.30;;;1.15;;